Time;durP1;ratioP1;P1;durP2;ratioP2;P2;SDS_P1;SDS_P2;PMS_P1;PMS_P2;Temp;Humidity;BMP_temperature;BMP_pressure;BME280_temperature;BME280_humidity;BME280_pressure;Samples;Min_cycle;Max_cycle;Signal;HPM_P1;HPM_P2
2023/07/02 00:01:36;;;;;;;2.97;1.95;;;21.20;77.30;;;;;;5091710;28;20056;-32
2023/07/02 00:04:03;;;;;;;2.42;1.80;;;;;;;;;;5091372;28;20051;-37
2023/07/02 00:06:32;;;;;;;3.50;1.55;;;22.10;77.30;;;;;;5091693;28;20127;-34
2023/07/02 00:08:59;;;;;;;3.50;2.00;;;;;;;;;;5091724;28;20217;-35
2023/07/02 00:11:26;;;;;;;3.28;1.80;;;21.50;77.20;;;;;;5080923;28;20051;-32
2023/07/02 00:13:52;;;;;;;3.08;1.90;;;21.10;68.90;;;;;;5070922;28;20131;-32
2023/07/02 00:16:19;;;;;;;2.33;1.88;;;;;;;;;;5071388;28;20135;-33
2023/07/02 00:18:52;;;;;;;3.97;2.25;;;21.50;77.20;;;;;;5071435;28;20054;-32
2023/07/02 00:21:19;;;;;;;3.17;2.00;;;21.40;77.70;;;;;;5071014;28;20083;-32
2023/07/02 00:23:47;;;;;;;2.78;1.80;;;21.10;63.90;;;;;;5071007;28;20128;-34
2023/07/02 00:26:13;;;;;;;3.88;1.92;;;22.20;65.60;;;;;;5072772;28;20482;-33
2023/07/02 00:28:40;;;;;;;4.32;1.98;;;21.80;72.60;;;;;;5079569;28;20518;-33
2023/07/02 00:31:08;;;;;;;3.35;2.20;;;22.10;77.50;;;;;;5088138;28;20044;-32
2023/07/02 00:33:35;;;;;;;4.07;2.20;;;21.90;77.50;;;;;;5075562;28;20050;-31
2023/07/02 00:36:02;;;;;;;3.45;1.90;;;;;;;;;;5072147;28;20151;-35
2023/07/02 00:38:28;;;;;;;3.03;1.90;;;21.60;77.30;;;;;;5091346;28;20048;-32
2023/07/02 00:40:57;;;;;;;4.53;2.17;;;21.70;77.00;;;;;;5090526;28;20070;-31
2023/07/02 00:43:24;;;;;;;3.92;2.13;;;;;;;;;;5093547;28;20076;-32
2023/07/02 00:45:51;;;;;;;3.25;2.15;;;21.70;77.60;;;;;;5094906;28;20048;-32
2023/07/02 00:48:17;;;;;;;3.85;2.30;;;21.40;76.80;;;;;;5094984;28;20055;-32
2023/07/02 00:50:44;;;;;;;3.58;2.15;;;;;;;;;;5094693;28;20122;-33
2023/07/02 00:53:11;;;;;;;3.50;2.05;;;21.90;64.70;;;;;;5094483;28;20122;-32
2023/07/02 00:55:38;;;;;;;2.85;1.98;;;;;;;;;;5094303;28;20499;-35
2023/07/02 00:58:08;;;;;;;3.97;2.65;;;21.40;62.50;;;;;;5076585;28;20473;-32
2023/07/02 01:00:34;;;;;;;5.35;2.50;;;21.70;63.80;;;;;;5074480;28;20101;-35
2023/07/02 01:03:02;;;;;;;4.32;2.30;;;21.90;72.00;;;;;;5074113;28;20127;-33
2023/07/02 01:05:35;;;;;;;5.22;2.05;;;21.20;66.70;;;;;;5084681;28;20052;-34
2023/07/02 01:08:02;;;;;;;3.97;2.20;;;21.70;63.40;;;;;;5094116;28;20044;-32
2023/07/02 01:10:30;;;;;;;4.45;2.33;;;;;;;;;;5094511;28;20052;-35
2023/07/02 01:12:57;;;;;;;4.88;2.70;;;21.00;75.70;;;;;;5092615;28;20040;-33
2023/07/02 01:15:25;;;;;;;4.80;2.50;;;21.40;77.10;;;;;;5094364;28;20128;-33
2023/07/02 01:17:52;;;;;;;3.70;2.33;;;21.40;76.90;;;;;;5093915;28;20051;-31
2023/07/02 01:20:20;;;;;;;4.63;2.05;;;21.60;65.40;;;;;;5094193;28;20451;-34
2023/07/02 01:22:51;;;;;;;3.70;2.30;;;21.90;65.90;;;;;;5093761;28;20108;-34
2023/07/02 01:25:17;;;;;;;4.43;2.50;;;20.90;74.70;;;;;;5094269;28;20055;-32
2023/07/02 01:27:44;;;;;;;4.53;2.55;;;22.60;77.40;;;;;;5091855;28;20131;-32
2023/07/02 01:30:11;;;;;;;5.03;2.67;;;21.70;76.90;;;;;;5073940;28;20131;-31
2023/07/02 01:32:38;;;;;;;5.13;2.85;;;21.60;77.60;;;;;;5073508;28;20131;-31
2023/07/02 01:35:06;;;;;;;4.00;2.63;;;21.80;77.30;;;;;;5073732;28;20052;-31
2023/07/02 01:37:37;;;;;;;5.85;2.88;;;21.40;60.50;;;;;;5087363;28;20044;-32
2023/07/02 01:40:05;;;;;;;4.60;2.58;;;;;;;;;;5094008;28;20086;-35
2023/07/02 01:42:32;;;;;;;5.13;2.83;;;21.40;76.80;;;;;;5093709;28;20059;-40
2023/07/02 01:44:59;;;;;;;3.97;2.67;;;21.60;76.90;;;;;;5092829;28;20058;-38
2023/07/02 01:47:26;;;;;;;5.38;2.95;;;;;;;;;;5093283;28;20056;-35
2023/07/02 01:49:53;;;;;;;5.40;2.95;;;21.50;77.10;;;;;;5093246;28;20507;-39
2023/07/02 01:52:19;;;;;;;5.40;2.85;;;22.60;77.30;;;;;;5093536;28;20127;-38
2023/07/02 01:54:47;;;;;;;4.28;3.05;;;22.40;65.00;;;;;;5092161;28;20548;-36
2023/07/02 01:57:14;;;;;;;4.35;2.88;;;21.50;63.30;;;;;;5093585;28;20131;-36
2023/07/02 01:59:41;;;;;;;5.45;2.90;;;;;;;;;;5092859;28;20129;-38
2023/07/02 02:02:08;;;;;;;5.15;2.97;;;21.70;77.10;;;;;;5074080;28;20109;-40
2023/07/02 02:04:35;;;;;;;6.35;3.00;;;;;;;;;;5072786;28;20163;-37
2023/07/02 02:07:02;;;;;;;5.95;2.97;;;21.50;74.80;;;;;;5073228;28;20429;-40
2023/07/02 02:09:32;;;;;;;4.78;3.00;;;;;;;;;;5073142;28;20052;-37
2023/07/02 02:12:00;;;;;;;6.03;3.05;;;21.40;60.50;;;;;;5072662;28;20110;-35
2023/07/02 02:14:27;;;;;;;6.38;3.67;;;;;;;;;;5072657;28;20123;-37
2023/07/02 02:16:53;;;;;;;4.85;2.83;;;21.50;77.50;;;;;;5073908;28;20135;-39
2023/07/02 02:19:20;;;;;;;5.70;3.13;;;;;;;;;;5072952;28;20128;-38
2023/07/02 02:21:47;;;;;;;7.55;3.30;;;21.10;69.00;;;;;;5072782;28;20048;-37
2023/07/02 02:24:14;;;;;;;5.97;3.10;;;21.00;76.40;;;;;;5072204;28;20566;-38
2023/07/02 02:26:41;;;;;;;5.15;3.00;;;;;;;;;;5072755;28;20087;-37
2023/07/02 02:29:09;;;;;;;5.85;3.40;;;21.00;76.50;;;;;;5072611;28;20048;-40
2023/07/02 02:31:36;;;;;;;5.47;3.05;;;21.50;77.10;;;;;;5073582;28;20062;-37
2023/07/02 02:34:02;;;;;;;6.80;3.35;;;21.90;77.00;;;;;;5084976;28;20100;-41
2023/07/02 02:36:29;;;;;;;9.15;3.40;;;;;;;;;;5092202;28;20055;-34
2023/07/02 02:38:56;;;;;;;5.15;3.17;;;21.10;77.30;;;;;;5092803;28;20051;-37
2023/07/02 02:41:23;;;;;;;6.97;3.30;;;22.30;77.20;;;;;;5092725;28;20115;-38
2023/07/02 02:43:50;;;;;;;6.03;3.25;;;21.40;64.00;;;;;;5092060;28;20167;-38
2023/07/02 02:46:22;;;;;;;6.78;3.55;;;21.40;77.00;;;;;;5092331;28;20126;-39
2023/07/02 02:48:48;;;;;;;6.63;3.20;;;21.40;69.50;;;;;;5079590;28;20136;-41
2023/07/02 02:51:15;;;;;;;6.07;3.45;;;22.20;77.20;;;;;;5072269;28;20051;-39
2023/07/02 02:53:42;;;;;;;7.63;3.50;;;;;;;;;;5071916;28;20052;-37
2023/07/02 02:56:09;;;;;;;5.68;3.10;;;21.30;77.10;;;;;;5072133;28;20052;-39
2023/07/02 02:58:35;;;;;;;8.00;3.35;;;21.10;76.90;;;;;;5072019;28;20132;-40
2023/07/02 03:01:10;;;;;;;6.25;3.63;;;21.80;67.70;;;;;;5072152;28;20048;-40
2023/07/02 03:03:40;;;;;;;6.47;3.50;;;21.50;77.10;;;;;;5073104;28;20123;-38
2023/07/02 03:06:07;;;;;;;6.15;3.53;;;21.50;76.80;;;;;;5080385;28;20060;-39
2023/07/02 03:08:33;;;;;;;6.43;3.65;;;21.50;77.20;;;;;;5088391;28;20048;-40
2023/07/02 03:11:01;;;;;;;5.85;3.47;;;;;;;;;;5071790;28;20604;-36
2023/07/02 03:13:27;;;;;;;6.75;3.63;;;21.40;77.20;;;;;;5071856;28;20099;-38
2023/07/02 03:15:54;;;;;;;7.15;3.60;;;21.20;76.70;;;;;;5071935;28;20047;-36
2023/07/02 03:18:21;;;;;;;5.00;3.28;;;21.10;65.30;;;;;;5071719;28;20135;-38
2023/07/02 03:20:49;;;;;;;7.93;3.85;;;22.10;77.60;;;;;;5073037;28;20049;-39
2023/07/02 03:23:16;;;;;;;8.18;3.88;;;;;;;;;;5071620;28;20146;-40
2023/07/02 03:25:43;;;;;;;6.07;4.00;;;;;;;;;;5071622;28;20052;-36
2023/07/02 03:28:10;;;;;;;6.47;3.40;;;21.90;77.20;;;;;;5071746;28;20131;-38
2023/07/02 03:30:38;;;;;;;7.30;3.88;;;;;;;;;;5071724;28;20080;-35
2023/07/02 03:33:04;;;;;;;8.57;3.63;;;21.10;76.80;;;;;;5071522;28;20501;-39
2023/07/02 03:35:31;;;;;;;8.30;3.92;;;;;;;;;;5072694;28;20083;-35
2023/07/02 03:37:59;;;;;;;6.22;3.72;;;21.10;60.30;;;;;;5089035;28;20051;-40
2023/07/02 03:40:26;;;;;;;6.82;3.50;;;20.70;76.90;;;;;;5091522;28;20072;-40
2023/07/02 03:42:53;;;;;;;7.65;3.90;;;21.00;77.50;;;;;;5091523;28;20046;-39
2023/07/02 03:45:19;;;;;;;6.90;3.80;;;21.50;66.40;;;;;;5091648;28;20072;-35
2023/07/02 03:47:46;;;;;;;8.00;4.05;;;20.70;77.20;;;;;;5091823;28;20050;-37
2023/07/02 03:50:13;;;;;;;6.90;4.15;;;21.10;76.70;;;;;;5091566;28;20397;-40
2023/07/02 03:52:40;;;;;;;6.30;3.85;;;21.50;62.70;;;;;;5081802;28;20135;-36
2023/07/02 03:55:09;;;;;;;8.88;4.05;;;20.90;77.00;;;;;;5090423;28;20044;-40
2023/07/02 03:57:36;;;;;;;7.88;3.95;;;;;;;;;;5091640;28;20127;-37
2023/07/02 04:00:04;;;;;;;6.28;3.95;;;21.10;77.00;;;;;;5091760;28;20135;-40
2023/07/02 04:02:31;;;;;;;6.18;3.85;;;20.30;76.60;;;;;;5091379;28;20131;-40
2023/07/02 04:04:58;;;;;;;8.40;3.85;;;;;;;;;;5091197;28;20502;-36
2023/07/02 04:07:25;;;;;;;7.75;3.90;;;20.00;76.40;;;;;;5090156;28;20052;-40
2023/07/02 04:09:52;;;;;;;7.35;3.75;;;;;;;;;;5091432;28;20063;-39
2023/07/02 04:12:20;;;;;;;7.97;3.70;;;22.10;77.10;;;;;;5091501;28;20130;-38
2023/07/02 04:14:47;;;;;;;6.93;3.90;;;20.80;76.50;;;;;;5091472;28;20127;-40
2023/07/02 04:17:14;;;;;;;7.70;4.00;;;20.70;65.10;;;;;;5092529;28;20131;-40
2023/07/02 04:19:41;;;;;;;6.47;4.15;;;;;;;;;;5094944;28;20052;-35
2023/07/02 04:22:08;;;;;;;7.20;4.32;;;21.40;76.90;;;;;;5095529;28;20159;-40
2023/07/02 04:24:35;;;;;;;7.70;4.40;;;;;;;;;;5093149;28;20473;-38
2023/07/02 04:27:01;;;;;;;7.82;4.20;;;21.90;77.00;;;;;;5075512;28;20476;-40
2023/07/02 04:29:29;;;;;;;8.68;4.53;;;20.50;76.80;;;;;;5074602;28;20044;-41
2023/07/02 04:31:56;;;;;;;6.40;3.75;;;21.50;76.50;;;;;;5074902;28;20409;-41
2023/07/02 04:34:23;;;;;;;8.23;4.10;;;;;;;;;;5074415;28;20131;-34
2023/07/02 04:36:50;;;;;;;9.00;4.50;;;21.70;77.00;;;;;;5082832;28;20131;-40
2023/07/02 04:39:17;;;;;;;8.70;4.03;;;;;;;;;;5094601;28;20528;-37
2023/07/02 04:41:44;;;;;;;7.80;4.22;;;;;;;;;;5079855;28;20369;-40
2023/07/02 04:44:12;;;;;;;7.60;4.25;;;21.40;77.60;;;;;;5076207;28;20052;-37
2023/07/02 04:46:40;;;;;;;8.38;4.10;;;20.90;77.50;;;;;;5094821;28;20076;-40
2023/07/02 04:49:07;;;;;;;9.68;4.80;;;;;;;;;;5095052;28;20135;-39
2023/07/02 04:51:34;;;;;;;7.10;3.97;;;19.80;75.00;;;;;;5094712;28;20054;-38
2023/07/02 04:54:00;;;;;;;8.90;4.43;;;21.80;77.20;;;;;;5094556;28;20131;-39
2023/07/02 04:56:27;;;;;;;9.30;4.65;;;;;;;;;;5090392;28;20041;-36
2023/07/02 04:58:54;;;;;;;7.45;4.05;;;20.90;76.60;;;;;;5074399;28;20055;-38
2023/07/02 05:01:21;;;;;;;8.35;4.63;;;21.00;77.50;;;;;;5074293;28;20139;-39
2023/07/02 05:03:49;;;;;;;10.25;4.43;;;21.00;60.20;;;;;;5073871;28;20131;-38
2023/07/02 05:06:16;;;;;;;7.32;4.15;;;;;;;;;;5091278;28;20127;-34
2023/07/02 05:08:43;;;;;;;9.63;4.55;;;20.90;76.50;;;;;;5094661;28;20059;-39
2023/07/02 05:11:09;;;;;;;11.02;4.40;;;20.90;76.70;;;;;;5094504;28;20127;-37
2023/07/02 05:13:36;;;;;;;9.45;4.32;;;;;;;;;;5092217;28;20496;-37
2023/07/02 05:16:03;;;;;;;8.38;4.65;;;20.20;76.20;;;;;;5094187;28;20488;-39
2023/07/02 05:18:30;;;;;;;9.05;4.63;;;;;;;;;;5094215;28;20047;-36
2023/07/02 05:20:58;;;;;;;8.15;4.65;;;21.00;77.50;;;;;;5094454;28;20127;-38
2023/07/02 05:23:25;;;;;;;8.25;4.65;;;21.10;76.70;;;;;;5094215;28;20048;-39
2023/07/02 05:25:52;;;;;;;8.13;4.40;;;21.00;77.60;;;;;;5093888;28;20131;-38
2023/07/02 05:28:19;;;;;;;9.45;4.40;;;;;;;;;;5090065;28;20055;-38
2023/07/02 05:30:46;;;;;;;7.90;4.32;;;;;;;;;;5093882;28;20054;-36
2023/07/02 05:33:13;;;;;;;9.18;4.60;;;;;;;;;;5093870;28;20138;-37
2023/07/02 05:35:40;;;;;;;8.50;4.55;;;;;;;;;;5093709;28;20051;-39
2023/07/02 05:38:08;;;;;;;8.38;4.30;;;20.70;61.60;;;;;;5093189;28;20048;-36
2023/07/02 05:40:35;;;;;;;7.05;4.22;;;;;;;;;;5093812;28;20044;-33
2023/07/02 05:43:02;;;;;;;9.05;4.72;;;21.30;77.10;;;;;;5093299;28;20135;-40
2023/07/02 05:45:29;;;;;;;9.10;4.47;;;20.90;76.90;;;;;;5093151;28;20048;-40
2023/07/02 05:47:55;;;;;;;9.77;4.40;;;20.50;77.10;;;;;;5092276;28;20394;-38
2023/07/02 05:50:22;;;;;;;8.40;4.22;;;20.60;76.30;;;;;;5093764;28;20048;-40
2023/07/02 05:52:49;;;;;;;8.57;4.60;;;;;;;;;;5093320;28;20153;-40
2023/07/02 05:55:17;;;;;;;7.75;4.63;;;20.90;76.80;;;;;;5093591;28;20127;-38
2023/07/02 05:57:44;;;;;;;7.88;4.40;;;20.80;77.30;;;;;;5093144;28;20473;-38
2023/07/02 06:00:12;;;;;;;10.18;4.53;;;20.90;60.00;;;;;;5086849;28;20127;-36
2023/07/02 06:02:39;;;;;;;10.68;4.93;;;21.90;76.00;;;;;;5081652;28;20044;-37
2023/07/02 06:05:06;;;;;;;10.07;5.13;;;20.90;60.00;;;;;;5082922;28;20048;-36
2023/07/02 06:07:33;;;;;;;8.48;4.50;;;21.00;76.50;;;;;;5081229;28;20072;-40
2023/07/02 06:10:00;;;;;;;9.30;5.05;;;;;;;;;;5079797;28;20130;-34
2023/07/02 06:12:28;;;;;;;8.02;4.30;;;20.60;62.60;;;;;;5080345;28;20062;-40
2023/07/02 06:14:55;;;;;;;9.07;4.57;;;20.90;76.50;;;;;;5077908;28;20127;-37
2023/07/02 06:17:22;;;;;;;8.45;4.72;;;21.60;76.80;;;;;;5082777;28;20618;-37
2023/07/02 06:19:49;;;;;;;8.77;4.72;;;21.60;77.70;;;;;;5081332;28;20051;-39
2023/07/02 06:22:16;;;;;;;8.65;4.38;;;20.70;76.30;;;;;;5072589;28;20131;-37
2023/07/02 06:24:42;;;;;;;10.88;4.75;;;21.10;68.00;;;;;;5072279;28;20124;-36
2023/07/02 06:27:09;;;;;;;10.30;4.70;;;20.70;76.20;;;;;;5072268;28;20052;-38
2023/07/02 06:29:37;;;;;;;8.13;4.60;;;21.40;76.70;;;;;;5072406;28;20132;-40
2023/07/02 06:32:05;;;;;;;9.73;4.43;;;21.00;77.30;;;;;;5078936;28;20130;-38
2023/07/02 06:34:31;;;;;;;8.05;4.28;;;21.60;76.70;;;;;;5080755;28;20044;-39
2023/07/02 06:36:58;;;;;;;8.88;4.70;;;21.00;76.90;;;;;;5078037;28;20561;-41
2023/07/02 06:39:25;;;;;;;7.82;4.45;;;21.40;66.70;;;;;;5082379;28;20132;-37
2023/07/02 06:41:52;;;;;;;8.60;5.00;;;21.30;69.70;;;;;;5082837;28;20048;-40
2023/07/02 06:44:18;;;;;;;10.27;4.60;;;20.40;66.10;;;;;;5083164;28;20139;-40
2023/07/02 06:46:48;;;;;;;11.15;4.78;;;21.40;61.60;;;;;;5080989;28;20049;-37
2023/07/02 06:49:14;;;;;;;10.23;4.63;;;21.10;77.00;;;;;;5080433;28;20047;-39
2023/07/02 06:51:42;;;;;;;7.97;4.60;;;20.60;72.80;;;;;;5082484;28;20075;-39
2023/07/02 06:54:08;;;;;;;9.27;4.63;;;20.90;76.40;;;;;;5080667;28;20052;-38
2023/07/02 06:56:36;;;;;;;7.65;4.30;;;;;;;;;;5079417;28;20539;-38
2023/07/02 06:59:03;;;;;;;9.32;4.65;;;20.90;76.30;;;;;;5071625;28;20494;-38
2023/07/02 07:01:29;;;;;;;7.47;4.55;;;20.70;62.10;;;;;;5077404;28;20048;-35
2023/07/02 07:03:57;;;;;;;8.30;4.47;;;20.90;76.10;;;;;;5080773;28;20878;-38
2023/07/02 07:06:24;;;;;;;11.05;4.85;;;;;;;;;;5079054;28;20127;-36
2023/07/02 07:08:52;;;;;;;6.85;3.97;;;;;;;;;;5082954;28;20049;-40
2023/07/02 07:11:18;;;;;;;6.68;3.78;;;21.10;77.10;;;;;;5081061;28;20083;-39
2023/07/02 07:13:45;;;;;;;7.65;4.72;;;20.90;76.30;;;;;;5081441;28;20070;-38
2023/07/02 07:16:12;;;;;;;9.40;4.30;;;21.10;59.90;;;;;;5088177;28;20048;-37
2023/07/02 07:18:39;;;;;;;7.10;4.45;;;21.10;76.30;;;;;;5092243;28;20052;-36
2023/07/02 07:21:07;;;;;;;8.82;4.32;;;20.60;59.60;;;;;;5090695;28;20071;-36
2023/07/02 07:23:33;;;;;;;8.73;4.28;;;20.90;76.10;;;;;;5092092;28;20135;-38
2023/07/02 07:26:00;;;;;;;9.45;5.05;;;21.10;60.90;;;;;;5091786;28;20126;-37
2023/07/02 07:28:27;;;;;;;9.38;4.45;;;21.10;76.50;;;;;;5085242;28;20416;-39
2023/07/02 07:30:53;;;;;;;6.70;3.90;;;20.10;75.60;;;;;;5082666;28;20131;-39
2023/07/02 07:33:21;;;;;;;8.93;4.50;;;;;;;;;;5081851;28;20409;-36
2023/07/02 07:35:47;;;;;;;6.88;4.28;;;22.10;76.60;;;;;;5080324;28;20385;-40
2023/07/02 07:38:16;;;;;;;9.30;4.35;;;20.30;75.70;;;;;;5079650;28;20127;-40
2023/07/02 07:40:43;;;;;;;8.60;4.65;;;21.10;59.70;;;;;;5082143;28;20049;-35
2023/07/02 07:43:10;;;;;;;7.00;3.90;;;21.20;76.50;;;;;;5071069;28;20051;-41
2023/07/02 07:45:37;;;;;;;7.25;4.40;;;;;;;;;;5079263;28;20124;-37
2023/07/02 07:48:04;;;;;;;7.60;3.90;;;22.20;76.60;;;;;;5080303;28;20425;-40
2023/07/02 07:50:31;;;;;;;8.27;4.15;;;21.50;72.50;;;;;;5082129;28;20460;-38
2023/07/02 07:52:59;;;;;;;8.70;4.00;;;22.20;76.90;;;;;;5076566;28;20131;-39
2023/07/02 07:55:27;;;;;;;8.65;4.00;;;21.30;75.60;;;;;;5075781;28;20131;-37
2023/07/02 07:57:54;;;;;;;7.63;3.92;;;;;;;;;;5078373;28;20134;-38
2023/07/02 08:00:21;;;;;;;10.82;3.88;;;21.50;76.60;;;;;;5090710;28;20124;-38
2023/07/02 08:02:48;;;;;;;6.85;4.10;;;21.40;70.70;;;;;;5095739;28;20044;-37
2023/07/02 08:05:14;;;;;;;6.55;3.65;;;20.90;75.50;;;;;;5090362;28;20079;-38
2023/07/02 08:07:42;;;;;;;8.15;3.75;;;;;;;;;;5075195;28;20584;-36
2023/07/02 08:10:09;;;;;;;5.93;3.83;;;;;;;;;;5076356;28;20060;-37
2023/07/02 08:12:37;;;;;;;7.75;3.53;;;21.10;64.40;;;;;;5074236;28;20150;-37
2023/07/02 08:15:04;;;;;;;7.65;3.70;;;21.20;62.60;;;;;;5074594;28;20072;-36
2023/07/02 08:17:31;;;;;;;8.02;3.83;;;21.80;75.40;;;;;;5075220;28;20040;-36
2023/07/02 08:19:58;;;;;;;7.57;3.67;;;21.90;68.80;;;;;;5075442;28;20123;-37
2023/07/02 08:22:25;;;;;;;6.72;3.58;;;21.10;75.20;;;;;;5074756;28;20560;-36
2023/07/02 08:24:51;;;;;;;8.60;3.58;;;20.80;76.10;;;;;;5084559;28;20047;-38
2023/07/02 08:27:19;;;;;;;7.65;3.63;;;21.10;63.80;;;;;;5075018;28;20400;-36
2023/07/02 08:29:47;;;;;;;8.15;3.83;;;21.40;59.10;;;;;;5075047;28;20048;-37
2023/07/02 08:32:13;;;;;;;6.20;3.63;;;21.70;75.90;;;;;;5074708;28;20508;-37
2023/07/02 08:34:40;;;;;;;7.90;3.40;;;;;;;;;;5075081;28;20127;-37
2023/07/02 08:37:07;;;;;;;7.70;3.42;;;20.60;75.10;;;;;;5085159;28;20051;-40
2023/07/02 08:39:35;;;;;;;9.63;3.38;;;20.90;75.00;;;;;;5095093;28;20516;-38
2023/07/02 08:42:02;;;;;;;6.70;3.90;;;;;;;;;;5078678;28;20561;-33
2023/07/02 08:44:29;;;;;;;5.20;3.20;;;22.00;76.00;;;;;;5094919;28;20457;-40
2023/07/02 08:46:57;;;;;;;6.15;3.28;;;21.20;75.60;;;;;;5095125;28;20127;-39
2023/07/02 08:49:24;;;;;;;5.00;3.20;;;22.20;76.20;;;;;;5084273;28;20135;-40
2023/07/02 08:51:51;;;;;;;5.68;3.20;;;;;;;;;;5074546;28;20127;-36
2023/07/02 08:54:18;;;;;;;5.05;3.22;;;22.00;76.10;;;;;;5074382;28;20136;-38
2023/07/02 08:56:45;;;;;;;5.35;3.20;;;21.70;65.50;;;;;;5075721;28;20047;-37
2023/07/02 08:59:12;;;;;;;5.28;3.22;;;22.00;75.20;;;;;;5074449;28;20250;-37
2023/07/02 09:01:48;;;;;;;8.32;3.17;;;21.10;75.70;;;;;;5074718;28;20131;-37
2023/07/02 09:04:19;;;;;;;4.30;2.72;;;20.90;75.60;;;;;;5073717;28;20053;-39
2023/07/02 09:06:46;;;;;;;5.85;2.75;;;21.80;74.50;;;;;;5074208;28;20051;-38
2023/07/02 09:09:13;;;;;;;5.30;2.80;;;21.20;74.80;;;;;;5074605;28;20619;-40
2023/07/02 09:11:49;;;;;;;4.40;2.67;;;21.30;65.40;;;;;;5074279;28;20083;-36
2023/07/02 09:14:27;;;;;;;6.35;3.00;;;21.20;75.10;;;;;;5075156;28;20048;-40
2023/07/02 09:17:04;;;;;;;5.65;3.33;;;21.50;58.50;;;;;;5074214;28;20063;-35
2023/07/02 09:19:32;;;;;;;7.20;3.47;;;21.60;75.10;;;;;;5076243;28;20075;-39
2023/07/02 09:22:00;;;;;;;6.93;3.35;;;21.50;75.70;;;;;;5094279;28;20582;-39
2023/07/02 09:24:27;;;;;;;6.07;3.00;;;20.10;58.00;;;;;;5094195;28;20044;-36
2023/07/02 09:26:54;;;;;;;7.25;2.83;;;;;;;;;;5094396;28;20131;-37
2023/07/02 09:29:22;;;;;;;6.47;3.00;;;21.30;74.70;;;;;;5088470;28;20123;-36
2023/07/02 09:31:49;;;;;;;6.07;3.00;;;21.00;75.40;;;;;;5073847;28;20497;-40
2023/07/02 09:34:16;;;;;;;7.20;3.00;;;;;;;;;;5073044;28;20052;-38
2023/07/02 09:36:44;;;;;;;6.05;3.05;;;21.20;75.30;;;;;;5085563;28;20127;-39
2023/07/02 09:39:13;;;;;;;6.97;3.13;;;21.80;74.80;;;;;;5089253;28;20122;-40
2023/07/02 09:41:40;;;;;;;5.15;2.70;;;;;;;;;;5080708;28;20048;-37
2023/07/02 09:44:07;;;;;;;6.50;3.30;;;21.20;73.90;;;;;;5087360;28;20050;-38
2023/07/02 09:46:34;;;;;;;5.90;3.10;;;21.50;74.30;;;;;;5083886;28;20047;-39
2023/07/02 09:49:01;;;;;;;6.47;2.60;;;20.70;57.60;;;;;;5084222;28;20467;-36
2023/07/02 09:51:27;;;;;;;6.97;3.10;;;20.80;70.50;;;;;;5082696;28;20068;-40
2023/07/02 09:53:56;;;;;;;5.88;2.65;;;22.00;74.30;;;;;;5082756;28;20122;-38
2023/07/02 09:56:23;;;;;;;7.75;2.95;;;;;;;;;;5083931;28;20555;-37
2023/07/02 09:58:50;;;;;;;4.95;2.90;;;20.90;73.60;;;;;;5079894;28;20134;-38
2023/07/02 10:01:17;;;;;;;5.40;2.53;;;;;;;;;;5082464;28;20101;-32
2023/07/02 10:03:43;;;;;;;5.20;2.70;;;21.40;75.30;;;;;;5087228;28;20063;-31
2023/07/02 10:06:10;;;;;;;5.18;2.78;;;21.50;75.30;;;;;;5084242;28;20131;-32
2023/07/02 10:08:37;;;;;;;3.35;2.13;;;;;;;;;;5083620;28;20140;-35
2023/07/02 10:11:12;;;;;;;4.70;2.70;;;20.80;73.80;;;;;;5082742;28;20119;-32
2023/07/02 10:13:39;;;;;;;9.10;3.17;;;22.10;58.10;;;;;;5081481;28;20076;-34
2023/07/02 10:16:07;;;;;;;4.90;2.88;;;21.10;74.80;;;;;;5081893;28;20047;-31
2023/07/02 10:18:34;;;;;;;6.65;2.83;;;21.30;58.30;;;;;;5064079;28;20056;-34
2023/07/02 10:21:00;;;;;;;5.40;2.85;;;21.20;74.90;;;;;;5078642;28;20056;-32
2023/07/02 10:23:34;;;;;;;6.00;2.75;;;21.40;57.60;;;;;;5082238;28;20054;-31
2023/07/02 10:26:14;;;;;;;7.63;3.50;;;21.10;73.80;;;;;;5081486;28;20127;-31
2023/07/02 10:28:41;;;;;;;5.18;2.70;;;;;;;;;;5081738;28;20412;-31
2023/07/02 10:31:18;;;;;;;4.47;2.47;;;21.40;58.10;;;;;;5082091;28;20121;-34
2023/07/02 10:33:45;;;;;;;3.67;2.30;;;21.30;74.40;;;;;;5072014;28;20128;-31
2023/07/02 10:36:19;;;;;;;6.68;2.85;;;21.50;58.20;;;;;;5071505;28;20126;-35
2023/07/02 10:38:46;;;;;;;4.50;2.45;;;21.70;75.40;;;;;;5072438;28;20571;-31
2023/07/02 10:41:23;;;;;;;5.35;2.35;;;21.80;68.50;;;;;;5072196;28;20076;-32
2023/07/02 10:43:49;;;;;;;6.00;2.53;;;21.40;71.30;;;;;;5072372;28;20125;-31
2023/07/02 10:46:19;;;;;;;5.65;2.65;;;21.50;58.00;;;;;;5091378;28;20044;-34
2023/07/02 10:48:52;;;;;;;4.90;2.70;;;21.60;58.00;;;;;;5092512;28;20567;-35
2023/07/02 10:51:19;;;;;;;3.55;2.20;;;21.90;75.00;;;;;;5088271;28;20123;-31
2023/07/02 10:53:45;;;;;;;4.53;2.60;;;21.50;75.20;;;;;;5092020;28;20139;-32
2023/07/02 10:56:18;;;;;;;5.80;2.53;;;21.20;74.00;;;;;;5092367;28;20082;-31
2023/07/02 10:58:46;;;;;;;5.22;2.53;;;;;;;;;;5092383;28;20048;-35
2023/07/02 11:01:13;;;;;;;7.72;2.40;;;;;;;;;;5092771;28;20473;-34
2023/07/02 11:03:40;;;;;;;7.03;2.45;;;22.40;74.50;;;;;;5091880;28;20044;-31
2023/07/02 11:06:07;;;;;;;6.40;2.55;;;;;;;;;;5090612;28;20127;-31
2023/07/02 11:08:37;;;;;;;5.10;2.38;;;21.10;57.50;;;;;;5092042;28;20503;-32
2023/07/02 11:11:07;;;;;;;4.88;2.40;;;22.00;71.80;;;;;;5092200;28;20130;-31
2023/07/02 11:13:35;;;;;;;5.82;2.50;;;21.60;74.60;;;;;;5091824;28;20111;-32
2023/07/02 11:16:02;;;;;;;6.40;3.10;;;22.10;58.50;;;;;;5091857;28;20412;-35
2023/07/02 11:18:32;;;;;;;6.13;2.60;;;20.90;73.70;;;;;;5092150;28;20058;-31
2023/07/02 11:20:58;;;;;;;6.70;2.70;;;21.40;73.10;;;;;;5092149;28;20098;-31
2023/07/02 11:23:26;;;;;;;4.53;2.60;;;;;;;;;;5075351;28;20048;-34
2023/07/02 11:25:58;;;;;;;5.13;2.40;;;21.50;57.60;;;;;;5071604;28;20053;-36
2023/07/02 11:28:24;;;;;;;3.80;2.30;;;21.80;75.10;;;;;;5077300;28;20040;-31
2023/07/02 11:30:52;;;;;;;4.00;2.47;;;21.50;57.70;;;;;;5071980;28;20086;-33
2023/07/02 11:33:19;;;;;;;6.28;2.33;;;21.20;74.50;;;;;;5071506;28;20139;-31
2023/07/02 11:35:46;;;;;;;5.78;2.70;;;21.70;74.40;;;;;;5071928;28;20111;-31
2023/07/02 11:38:13;;;;;;;4.97;2.70;;;20.90;73.60;;;;;;5090280;28;20051;-31
2023/07/02 11:40:40;;;;;;;5.18;2.53;;;;;;;;;;5078995;28;20131;-35
2023/07/02 11:43:07;;;;;;;5.03;2.60;;;21.70;73.80;;;;;;5091651;28;20052;-31
2023/07/02 11:45:33;;;;;;;3.95;2.50;;;21.90;63.60;;;;;;5079104;28;20128;-32
2023/07/02 11:48:02;;;;;;;4.55;2.60;;;21.50;57.90;;;;;;5078597;28;20127;-33
2023/07/02 11:50:30;;;;;;;5.55;2.72;;;20.70;63.80;;;;;;5080376;28;20048;-32
2023/07/02 11:52:56;;;;;;;4.22;2.22;;;22.00;70.60;;;;;;5080845;28;20429;-31
2023/07/02 11:55:23;;;;;;;3.70;2.20;;;21.40;73.40;;;;;;5082252;28;20048;-30
2023/07/02 11:57:50;;;;;;;5.13;2.33;;;;;;;;;;5080630;28;20120;-33
2023/07/02 12:00:17;;;;;;;4.80;2.30;;;21.10;73.00;;;;;;5080755;28;20554;-30
2023/07/02 12:02:44;;;;;;;6.13;2.35;;;20.60;72.90;;;;;;5083136;28;20101;-31
2023/07/02 12:05:12;;;;;;;4.50;2.42;;;21.40;69.70;;;;;;5083543;28;20044;-31
2023/07/02 12:07:39;;;;;;;5.72;2.10;;;21.60;72.70;;;;;;5082346;28;20055;-31
2023/07/02 12:10:08;;;;;;;4.78;2.70;;;21.00;73.40;;;;;;5085106;28;20059;-31
2023/07/02 12:12:34;;;;;;;3.78;2.22;;;21.60;73.50;;;;;;5080992;28;20111;-31
2023/07/02 12:15:02;;;;;;;4.35;2.20;;;21.60;64.50;;;;;;5080839;28;20052;-31
2023/07/02 12:17:28;;;;;;;4.45;2.20;;;21.70;62.60;;;;;;5081498;28;20048;-31
2023/07/02 12:19:55;;;;;;;5.53;2.28;;;21.30;59.60;;;;;;5087965;28;20131;-33
2023/07/02 12:22:23;;;;;;;5.32;2.55;;;21.70;73.80;;;;;;5091491;28;20122;-31
2023/07/02 12:24:50;;;;;;;4.70;2.40;;;21.40;72.80;;;;;;5071540;28;20055;-30
2023/07/02 12:27:17;;;;;;;4.57;2.35;;;21.50;73.80;;;;;;5070200;28;20161;-32
2023/07/02 12:29:44;;;;;;;5.72;2.40;;;21.00;63.70;;;;;;5073649;28;20131;-33
2023/07/02 12:32:11;;;;;;;4.68;2.22;;;;;;;;;;5081473;28;20044;-42
2023/07/02 12:34:38;;;;;;;9.40;2.90;;;;;;;;;;5079770;28;20044;-35
2023/07/02 12:37:05;;;;;;;6.53;2.22;;;22.20;72.70;;;;;;5078080;28;20043;-31
2023/07/02 12:39:33;;;;;;;5.75;2.15;;;22.00;60.80;;;;;;5084037;28;20103;-32
2023/07/02 12:42:00;;;;;;;4.70;2.35;;;;;;;;;;5085077;28;20059;-33
2023/07/02 12:44:27;;;;;;;5.15;2.20;;;22.20;73.00;;;;;;5085405;28;20127;-31
2023/07/02 12:46:54;;;;;;;4.65;2.13;;;21.70;72.70;;;;;;5090551;28;20436;-30
2023/07/02 12:49:20;;;;;;;6.05;2.30;;;21.10;70.80;;;;;;5074456;28;20136;-31
2023/07/02 12:51:48;;;;;;;4.53;2.20;;;;;;;;;;5074455;28;20501;-29
2023/07/02 12:54:15;;;;;;;4.47;2.30;;;21.30;66.50;;;;;;5074008;28;20048;-31
2023/07/02 12:56:43;;;;;;;4.43;2.20;;;21.20;72.40;;;;;;5085507;28;20048;-30
2023/07/02 12:59:10;;;;;;;3.40;2.30;;;;;;;;;;5074644;28;20304;-31
2023/07/02 13:01:37;;;;;;;4.70;2.30;;;21.80;73.00;;;;;;5075759;28;20056;-31
2023/07/02 13:04:04;;;;;;;5.40;2.40;;;21.60;66.00;;;;;;5072801;28;20044;-31
2023/07/02 13:06:34;;;;;;;4.30;2.28;;;;;;;;;;5092597;28;20060;-34
2023/07/02 13:09:01;;;;;;;5.72;2.25;;;;;;;;;;5093906;28;20489;-33
2023/07/02 13:11:27;;;;;;;5.22;2.38;;;21.70;72.60;;;;;;5094253;28;20127;-32